Time;durP1;ratioP1;P1;durP2;ratioP2;P2;SDS_P1;SDS_P2;PMS_P1;PMS_P2;Temp;Humidity;BMP_temperature;BMP_pressure;BME280_temperature;BME280_humidity;BME280_pressure;Samples;Min_cycle;Max_cycle;Signal;HPM_P1;HPM_P2
2023/08/14 00:00:07;;;;;;;6.45;1.55;;;17.10;99.90;;;;;;5037546;28;20114;-84
2023/08/14 00:02:38;;;;;;;10.13;1.80;;;17.10;99.90;;;;;;5040131;28;20060;-81
2023/08/14 00:05:05;;;;;;;8.13;1.55;;;17.00;99.90;;;;;;5045360;28;20149;-82
2023/08/14 00:07:32;;;;;;;9.15;2.17;;;17.00;99.90;;;;;;5030196;28;20045;-82
2023/08/14 00:09:59;;;;;;;8.02;1.40;;;17.00;99.90;;;;;;5038153;28;20041;-83
2023/08/14 00:12:26;;;;;;;7.10;1.60;;;17.00;99.90;;;;;;5054902;28;20483;-84
2023/08/14 00:14:53;;;;;;;9.10;2.25;;;17.00;99.90;;;;;;5038233;28;20116;-84
2023/08/14 00:17:20;;;;;;;5.57;1.58;;;16.90;99.90;;;;;;5018490;28;20049;-83
2023/08/14 00:19:47;;;;;;;7.18;1.40;;;16.90;99.90;;;;;;5017495;28;20049;-83
2023/08/14 00:22:13;;;;;;;6.43;1.65;;;17.00;99.90;;;;;;5032027;28;20037;-84
2023/08/14 00:24:41;;;;;;;7.65;1.80;;;17.00;99.90;;;;;;5001988;28;20046;-81
2023/08/14 00:27:07;;;;;;;9.15;1.70;;;17.00;99.90;;;;;;5062769;28;20040;-84
2023/08/14 00:29:37;;;;;;;6.15;1.40;;;17.00;99.90;;;;;;5051405;28;20033;-84
2023/08/14 00:32:04;;;;;;;12.35;2.13;;;16.90;99.90;;;;;;5047411;28;20064;-83
2023/08/14 00:34:33;;;;;;;10.73;1.77;;;16.90;99.90;;;;;;5033456;28;20041;-82
2023/08/14 00:36:59;;;;;;;11.20;1.85;;;16.80;99.90;;;;;;5017779;28;20100;-83
2023/08/14 00:39:27;;;;;;;9.50;2.00;;;16.90;99.90;;;;;;5057504;28;20045;-84
2023/08/14 00:41:54;;;;;;;6.35;2.00;;;16.90;99.90;;;;;;5034270;28;20369;-82
2023/08/14 00:44:20;;;;;;;6.45;1.73;;;16.90;99.90;;;;;;5025365;28;20063;-84
2023/08/14 00:46:47;;;;;;;9.18;1.70;;;16.90;99.90;;;;;;5047069;28;20456;-82
2023/08/14 00:49:14;;;;;;;11.02;1.77;;;16.90;99.90;;;;;;5049700;28;20448;-83
2023/08/14 00:51:41;;;;;;;6.55;1.80;;;16.90;99.90;;;;;;5017429;28;20099;-82
2023/08/14 00:54:08;;;;;;;6.88;1.45;;;16.90;99.90;;;;;;5045269;28;20059;-83
2023/08/14 00:56:35;;;;;;;5.90;1.40;;;16.90;99.90;;;;;;5021043;28;20095;-82
2023/08/14 00:59:02;;;;;;;12.23;2.03;;;17.00;99.90;;;;;;5036648;28;20462;-83
2023/08/14 01:01:28;;;;;;;9.45;1.92;;;17.00;99.90;;;;;;5036985;28;20387;-82
2023/08/14 01:03:55;;;;;;;7.85;2.00;;;17.00;99.90;;;;;;5048198;28;20439;-83
2023/08/14 01:06:22;;;;;;;9.82;1.70;;;17.00;99.90;;;;;;5039542;28;20120;-84
2023/08/14 01:08:49;;;;;;;10.15;2.00;;;17.10;99.90;;;;;;5046857;28;20532;-82
2023/08/14 01:11:16;;;;;;;8.63;1.70;;;17.00;99.90;;;;;;5028676;28;20060;-82
2023/08/14 01:13:42;;;;;;;11.60;1.50;;;17.00;99.90;;;;;;5062975;28;20072;-83
2023/08/14 01:16:10;;;;;;;4.80;1.42;;;17.10;99.90;;;;;;5020204;28;20041;-83
2023/08/14 01:18:38;;;;;;;6.93;1.50;;;17.00;99.90;;;;;;5039299;28;20228;-81
2023/08/14 01:21:05;;;;;;;7.80;1.60;;;17.00;99.90;;;;;;5000123;28;20051;-84
2023/08/14 01:23:31;;;;;;;7.80;1.48;;;17.00;99.90;;;;;;5031758;28;20037;-83
2023/08/14 01:25:58;;;;;;;12.65;1.40;;;17.00;99.90;;;;;;5033500;28;20045;-84
2023/08/14 01:28:27;;;;;;;4.90;1.45;;;17.00;99.90;;;;;;5042118;28;20046;-83
2023/08/14 01:30:53;;;;;;;8.43;2.05;;;17.00;99.90;;;;;;5045022;28;20046;-82
2023/08/14 01:33:20;;;;;;;5.38;1.50;;;17.00;99.90;;;;;;5016598;28;20080;-81
2023/08/14 01:35:47;;;;;;;7.15;1.73;;;17.00;99.90;;;;;;5028609;28;20065;-82
2023/08/14 01:38:15;;;;;;;7.97;1.67;;;17.00;99.90;;;;;;5053289;28;20043;-82
2023/08/14 01:40:42;;;;;;;5.32;1.55;;;17.00;99.90;;;;;;5045576;28;20076;-82
2023/08/14 01:43:09;;;;;;;6.88;1.63;;;17.00;99.90;;;;;;5069198;28;20053;-81
2023/08/14 01:45:37;;;;;;;4.82;1.63;;;17.00;99.90;;;;;;5088362;28;20409;-82
2023/08/14 01:48:04;;;;;;;7.38;1.45;;;17.00;99.90;;;;;;5059754;28;20067;-81
2023/08/14 01:50:31;;;;;;;7.97;1.70;;;17.00;99.90;;;;;;5074329;28;20048;-82
2023/08/14 01:52:58;;;;;;;8.05;1.50;;;17.00;99.90;;;;;;5092219;28;20047;-83
2023/08/14 01:55:24;;;;;;;8.43;1.58;;;17.00;99.90;;;;;;5076963;28;20048;-82
2023/08/14 01:57:51;;;;;;;7.13;1.60;;;17.10;99.90;;;;;;5057782;28;20063;-83
2023/08/14 02:00:18;;;;;;;8.55;1.60;;;17.10;99.90;;;;;;5052394;28;20036;-82
2023/08/14 02:02:45;;;;;;;6.63;1.52;;;17.10;99.90;;;;;;5055812;28;20040;-81
2023/08/14 02:05:13;;;;;;;7.70;1.52;;;17.10;99.90;;;;;;5069545;28;20055;-81
2023/08/14 02:07:42;;;;;;;5.88;1.65;;;17.10;99.90;;;;;;5058874;28;20045;-84
2023/08/14 02:10:09;;;;;;;6.85;1.52;;;17.10;99.90;;;;;;5056371;28;20120;-81
2023/08/14 02:12:36;;;;;;;5.72;1.40;;;17.10;99.90;;;;;;5053539;28;20124;-82
2023/08/14 02:15:06;;;;;;;5.85;1.35;;;17.10;99.90;;;;;;5077265;28;20048;-84
2023/08/14 02:17:33;;;;;;;6.10;1.48;;;17.10;99.90;;;;;;5080111;28;20083;-82
2023/08/14 02:20:00;;;;;;;6.35;1.45;;;17.10;99.90;;;;;;5063064;28;20045;-81
2023/08/14 02:22:27;;;;;;;5.60;1.40;;;17.20;99.90;;;;;;5067210;28;20067;-83
2023/08/14 02:24:53;;;;;;;5.63;1.50;;;17.20;99.90;;;;;;5077451;28;20119;-83
2023/08/14 02:27:20;;;;;;;6.05;1.70;;;17.20;99.90;;;;;;5070838;28;20045;-83
2023/08/14 02:29:47;;;;;;;5.90;1.52;;;17.20;99.90;;;;;;5037006;28;20071;-81
2023/08/14 02:32:14;;;;;;;4.93;1.25;;;17.20;99.90;;;;;;5053231;28;20059;-81
2023/08/14 02:34:41;;;;;;;6.00;1.35;;;17.20;99.90;;;;;;5052130;28;20140;-83
2023/08/14 02:37:08;;;;;;;8.35;1.23;;;17.20;99.90;;;;;;5067072;28;20044;-82
2023/08/14 02:39:37;;;;;;;11.98;1.92;;;17.20;99.90;;;;;;5041155;28;20052;-81
2023/08/14 02:42:05;;;;;;;10.45;1.77;;;17.10;99.90;;;;;;5040229;28;20083;-81
2023/08/14 02:44:32;;;;;;;8.07;1.70;;;17.00;99.90;;;;;;5039758;28;20128;-82
2023/08/14 02:46:59;;;;;;;7.28;1.58;;;16.90;99.90;;;;;;5039067;28;20063;-84
2023/08/14 02:49:26;;;;;;;6.90;1.67;;;16.70;99.90;;;;;;5074830;28;20463;-83
2023/08/14 02:51:53;;;;;;;10.48;2.03;;;16.60;99.90;;;;;;5040793;28;20046;-81
2023/08/14 02:54:19;;;;;;;6.68;1.55;;;16.50;99.90;;;;;;5038382;28;20111;-81
2023/08/14 02:56:48;;;;;;;5.75;1.98;;;16.50;99.90;;;;;;5049317;28;20038;-83
2023/08/14 02:59:19;;;;;;;6.30;1.67;;;16.50;99.90;;;;;;5018828;28;20140;-83
2023/08/14 03:01:46;;;;;;;9.13;1.80;;;16.40;99.90;;;;;;5019833;28;20095;-80
2023/08/14 03:04:13;;;;;;;6.05;1.55;;;16.40;99.90;;;;;;5019728;28;20049;-84
2023/08/14 03:06:40;;;;;;;8.70;1.95;;;16.40;99.90;;;;;;5019237;28;20153;-83
2023/08/14 03:09:07;;;;;;;5.40;1.50;;;16.40;99.90;;;;;;5003471;28;20121;-82
2023/08/14 03:11:33;;;;;;;6.72;1.55;;;16.30;99.90;;;;;;5047231;28;20056;-81
2023/08/14 03:14:00;;;;;;;9.90;2.10;;;16.30;99.90;;;;;;5018721;28;20116;-83
2023/08/14 03:16:28;;;;;;;16.38;2.50;;;16.30;99.90;;;;;;5037503;28;20041;-85
2023/08/14 03:18:55;;;;;;;8.10;2.17;;;16.10;99.90;;;;;;5042392;28;20468;-86
2023/08/14 03:21:22;;;;;;;12.48;1.98;;;15.90;99.90;;;;;;5075895;28;20064;-86
2023/08/14 03:23:50;;;;;;;6.57;1.58;;;15.70;99.90;;;;;;5025454;28;20048;-83
2023/08/14 03:26:17;;;;;;;8.65;1.75;;;15.60;99.90;;;;;;5047437;28;20052;-82
2023/08/14 03:28:44;;;;;;;11.25;2.13;;;15.50;99.90;;;;;;5031072;28;20073;-86
2023/08/14 03:31:11;;;;;;;6.30;1.92;;;15.50;99.90;;;;;;5044755;28;20049;-86
2023/08/14 03:33:41;;;;;;;13.02;2.20;;;15.60;99.90;;;;;;5030690;28;20045;-84
2023/08/14 03:36:09;;;;;;;7.47;1.88;;;15.60;99.90;;;;;;5003403;28;20053;-85
2023/08/14 03:38:36;;;;;;;5.45;1.67;;;15.60;99.90;;;;;;5028176;28;20102;-85
2023/08/14 03:41:04;;;;;;;6.18;1.85;;;15.60;99.90;;;;;;5072732;28;20063;-87
2023/08/14 03:43:31;;;;;;;6.82;2.03;;;15.70;99.90;;;;;;5066697;28;20094;-86
2023/08/14 03:45:58;;;;;;;7.22;1.95;;;15.70;99.90;;;;;;5086375;28;20040;-84
2023/08/14 03:48:29;;;;;;;10.05;1.90;;;15.80;99.90;;;;;;5055539;28;20045;-83
2023/08/14 03:50:56;;;;;;;4.78;1.60;;;15.70;99.90;;;;;;5054824;28;20084;-83
2023/08/14 03:53:26;;;;;;;6.80;2.00;;;15.70;99.90;;;;;;5054335;28;20068;-83
2023/08/14 03:55:53;;;;;;;6.53;1.98;;;15.70;99.90;;;;;;5070573;28;20045;-84
2023/08/14 03:58:21;;;;;;;6.75;1.45;;;15.70;99.90;;;;;;5055480;28;20079;-84
2023/08/14 04:00:51;;;;;;;7.65;1.58;;;15.70;99.90;;;;;;5037707;28;20060;-85
2023/08/14 04:03:17;;;;;;;5.72;1.67;;;15.80;99.90;;;;;;5089341;28;20140;-83
2023/08/14 04:05:44;;;;;;;8.65;1.80;;;15.80;99.90;;;;;;5062425;28;20521;-83
2023/08/14 04:08:11;;;;;;;5.55;1.80;;;15.80;99.90;;;;;;5073281;28;20053;-83
2023/08/14 04:10:38;;;;;;;7.70;1.98;;;15.80;99.90;;;;;;5075252;28;20118;-85
2023/08/14 04:13:05;;;;;;;10.23;1.85;;;15.80;99.90;;;;;;5076742;28;20048;-84
2023/08/14 04:15:32;;;;;;;9.40;1.92;;;15.80;99.90;;;;;;5081034;28;20086;-85
2023/08/14 04:18:01;;;;;;;9.52;1.95;;;15.80;99.90;;;;;;5095217;28;20524;-85
2023/08/14 04:20:28;;;;;;;6.13;1.50;;;15.90;99.90;;;;;;5042973;28;20072;-83
2023/08/14 04:22:55;;;;;;;7.47;1.90;;;15.90;99.90;;;;;;5065029;28;20041;-85
2023/08/14 04:25:25;;;;;;;8.32;1.92;;;15.90;99.90;;;;;;5088939;28;20111;-85
2023/08/14 04:27:53;;;;;;;5.35;1.70;;;15.90;99.90;;;;;;5074157;28;20055;-83
2023/08/14 04:30:19;;;;;;;5.22;1.80;;;15.90;99.90;;;;;;5088677;28;20056;-83
2023/08/14 04:32:48;;;;;;;6.13;1.80;;;15.90;99.90;;;;;;5073730;28;20066;-86
2023/08/14 04:35:15;;;;;;;8.23;1.95;;;15.90;99.90;;;;;;5087516;28;20127;-83
2023/08/14 04:37:44;;;;;;;8.82;1.75;;;15.90;99.90;;;;;;5063994;28;20119;-85
2023/08/14 04:40:11;;;;;;;7.90;1.88;;;16.00;99.90;;;;;;5053899;28;20053;-85
2023/08/14 04:42:37;;;;;;;5.13;1.90;;;16.00;99.90;;;;;;5089599;28;20064;-86
2023/08/14 04:45:07;;;;;;;5.25;1.80;;;16.00;99.90;;;;;;5058063;28;20049;-83
2023/08/14 04:47:35;;;;;;;6.53;2.08;;;15.90;99.90;;;;;;5067017;28;20043;-84
2023/08/14 04:50:02;;;;;;;6.38;1.60;;;15.80;99.90;;;;;;5082798;28;20097;-83
2023/08/14 04:52:29;;;;;;;9.73;2.50;;;15.80;99.90;;;;;;5063916;28;20103;-85
2023/08/14 04:54:56;;;;;;;7.47;1.83;;;15.80;99.90;;;;;;5061283;28;20053;-84
2023/08/14 05:00:13;;;;;;;6.85;1.85;;;15.70;99.90;;;;;;5069799;28;20040;-84
2023/08/14 05:02:40;;;;;;;6.00;1.88;;;15.70;99.90;;;;;;5048120;28;20041;-84
2023/08/14 05:05:07;;;;;;;8.07;1.65;;;15.80;99.90;;;;;;5054127;28;20147;-86
2023/08/14 05:07:34;;;;;;;6.38;1.92;;;15.80;99.90;;;;;;5053359;28;20468;-84
2023/08/14 05:10:05;;;;;;;4.03;1.52;;;15.80;99.90;;;;;;5054363;28;20037;-85
2023/08/14 05:12:32;;;;;;;6.95;1.60;;;15.80;99.90;;;;;;5069696;28;20494;-86
2023/08/14 05:14:59;;;;;;;9.15;1.75;;;15.80;99.90;;;;;;5054220;28;20060;-82
2023/08/14 05:19:58;;;;;;;8.85;2.10;;;15.90;99.90;;;;;;5053011;28;20530;-85
2023/08/14 05:22:25;;;;;;;5.97;1.63;;;16.00;99.90;;;;;;5054234;28;20051;-83
2023/08/14 05:24:51;;;;;;;7.03;1.98;;;16.10;99.90;;;;;;5054160;28;20040;-85
2023/08/14 05:27:19;;;;;;;4.45;1.60;;;16.10;99.90;;;;;;5053122;28;20133;-84
2023/08/14 05:29:47;;;;;;;6.35;1.73;;;16.20;99.90;;;;;;5063629;28;20379;-83
2023/08/14 05:32:13;;;;;;;5.88;1.77;;;16.20;99.90;;;;;;5058049;28;20048;-85
2023/08/14 05:34:40;;;;;;;5.97;2.17;;;16.30;99.90;;;;;;5061975;28;20045;-83
2023/08/14 05:37:08;;;;;;;9.85;2.15;;;16.30;99.90;;;;;;5074712;28;20037;-86
2023/08/14 05:39:35;;;;;;;7.90;2.08;;;16.40;99.90;;;;;;5071294;28;20533;-86
2023/08/14 05:42:01;;;;;;;8.55;1.92;;;16.50;99.90;;;;;;5024684;28;20522;-86
2023/08/14 05:44:28;;;;;;;7.30;2.05;;;16.50;99.90;;;;;;5039534;28;20512;-83
2023/08/14 05:49:41;;;;;;;11.25;2.10;;;16.70;99.90;;;;;;5059764;28;20053;-84
2023/08/14 05:52:08;;;;;;;5.97;1.80;;;16.80;99.90;;;;;;5033458;28;20045;-85
2023/08/14 05:54:35;;;;;;;10.18;2.42;;;16.80;99.90;;;;;;5016609;28;20052;-85
2023/08/14 05:57:04;;;;;;;6.43;1.60;;;16.80;99.90;;;;;;5034766;28;20049;-84
2023/08/14 05:59:30;;;;;;;6.60;1.80;;;16.80;99.90;;;;;;5030265;28;20098;-83
2023/08/14 06:01:57;;;;;;;7.82;1.92;;;16.80;99.90;;;;;;5016900;28;20045;-84
2023/08/14 06:04:28;;;;;;;8.85;1.83;;;16.80;99.90;;;;;;5017689;28;20096;-83
2023/08/14 06:06:56;;;;;;;6.07;1.85;;;16.80;99.90;;;;;;5033610;28;20033;-85
2023/08/14 06:09:22;;;;;;;6.57;1.98;;;16.80;99.90;;;;;;5030519;28;20052;-82
2023/08/14 06:11:50;;;;;;;9.35;2.15;;;16.80;99.90;;;;;;5046414;28;20064;-84
2023/08/14 06:14:16;;;;;;;8.52;2.00;;;16.80;99.90;;;;;;5031764;28;20083;-85
2023/08/14 06:16:43;;;;;;;6.32;1.85;;;16.80;99.90;;;;;;5020519;28;20535;-85
2023/08/14 06:19:10;;;;;;;9.57;2.05;;;16.80;99.90;;;;;;5043539;28;20032;-85
2023/08/14 06:21:37;;;;;;;6.55;2.15;;;16.80;99.90;;;;;;5036832;28;20036;-83
2023/08/14 06:24:04;;;;;;;9.70;2.17;;;16.90;99.90;;;;;;5057717;28;20159;-85
2023/08/14 06:26:33;;;;;;;6.60;2.08;;;16.80;99.90;;;;;;5046192;28;20069;-83
2023/08/14 06:29:00;;;;;;;8.00;2.22;;;16.80;99.90;;;;;;5034488;28;20124;-83
2023/08/14 06:31:26;;;;;;;8.40;2.40;;;16.90;99.90;;;;;;5020518;28;20037;-81
2023/08/14 06:33:53;;;;;;;6.63;2.10;;;16.90;99.90;;;;;;5064430;28;20446;-84
2023/08/14 06:36:23;;;;;;;10.05;2.40;;;16.80;99.90;;;;;;5044328;28;20115;-86
2023/08/14 06:38:49;;;;;;;6.32;2.10;;;16.90;99.90;;;;;;5020486;28;20045;-84
2023/08/14 06:41:16;;;;;;;11.07;2.85;;;17.00;99.90;;;;;;5045990;28;20053;-84
2023/08/14 06:43:45;;;;;;;6.78;2.45;;;17.00;99.90;;;;;;5057438;28;20448;-84
2023/08/14 06:46:13;;;;;;;6.30;2.58;;;17.10;99.90;;;;;;5056753;28;20041;-84
2023/08/14 06:48:40;;;;;;;8.32;1.85;;;17.10;99.90;;;;;;5067851;28;20044;-85
2023/08/14 06:51:07;;;;;;;7.57;2.60;;;17.10;99.90;;;;;;5063441;28;20115;-87
2023/08/14 06:53:34;;;;;;;8.50;2.72;;;17.20;99.90;;;;;;5063315;28;20049;-89
2023/08/14 06:56:00;;;;;;;10.40;2.63;;;17.20;99.90;;;;;;5061353;28;20048;-88
2023/08/14 06:58:27;;;;;;;8.68;3.00;;;17.20;99.90;;;;;;5065610;28;20045;-89
2023/08/14 07:00:55;;;;;;;7.90;2.40;;;17.30;99.90;;;;;;5061620;28;20132;-88
2023/08/14 07:03:22;;;;;;;8.15;2.75;;;17.40;99.90;;;;;;5090030;28;20182;-87
2023/08/14 07:05:49;;;;;;;7.97;2.50;;;17.50;99.90;;;;;;5063267;28;20041;-88
2023/08/14 07:11:20;;;;;;;11.75;2.85;;;17.70;99.90;;;;;;5059170;28;20067;-86
2023/08/14 07:13:47;;;;;;;11.88;2.67;;;17.80;99.90;;;;;;5072629;28;20048;-87
2023/08/14 07:18:44;;;;;;;8.82;2.80;;;17.90;99.90;;;;;;5059283;28;20052;-90
2023/08/14 07:21:25;;;;;;;7.20;2.67;;;17.90;99.90;;;;;;5066111;28;20111;-87
2023/08/14 07:23:52;;;;;;;8.07;2.30;;;18.10;99.90;;;;;;5077238;28;20055;-87
2023/08/14 07:29:05;;;;;;;9.20;2.58;;;18.30;99.90;;;;;;5065893;28;20067;-85
2023/08/14 07:31:32;;;;;;;6.65;2.30;;;18.30;99.90;;;;;;5085696;28;20117;-86
2023/08/14 07:33:59;;;;;;;8.52;3.03;;;18.40;99.90;;;;;;5090316;28;20036;-86
2023/08/14 07:36:26;;;;;;;9.23;2.65;;;18.50;99.90;;;;;;5067174;28;20045;-85
2023/08/14 07:38:53;;;;;;;7.07;2.25;;;18.60;99.90;;;;;;5039414;28;20064;-84
2023/08/14 07:41:19;;;;;;;6.60;2.22;;;18.60;99.90;;;;;;5081726;28;20072;-85
2023/08/14 07:43:46;;;;;;;6.97;2.30;;;18.70;99.90;;;;;;5096034;28;20481;-85
2023/08/14 07:46:13;;;;;;;10.82;2.55;;;18.70;99.90;;;;;;5076476;28;20075;-86
2023/08/14 07:48:39;;;;;;;11.15;2.13;;;18.70;99.90;;;;;;5066643;28;20063;-85
2023/08/14 07:51:06;;;;;;;7.07;2.13;;;18.70;99.90;;;;;;5074509;28;20057;-86
2023/08/14 07:53:33;;;;;;;9.02;2.45;;;18.80;99.90;;;;;;5074690;28;20067;-88
2023/08/14 07:56:00;;;;;;;8.70;2.00;;;18.90;99.90;;;;;;5075124;28;20487;-88
2023/08/14 07:58:26;;;;;;;8.63;2.13;;;19.00;99.90;;;;;;5066587;28;20073;-86
2023/08/14 08:00:53;;;;;;;7.57;2.20;;;19.00;99.90;;;;;;5081317;28;20044;-86
2023/08/14 08:03:20;;;;;;;7.22;2.20;;;19.10;99.90;;;;;;5055192;28;20041;-85
2023/08/14 08:05:47;;;;;;;6.05;2.03;;;19.00;99.90;;;;;;5055342;28;20116;-87
2023/08/14 08:08:14;;;;;;;10.45;1.70;;;19.00;99.90;;;;;;5088617;28;20041;-85
2023/08/14 08:10:41;;;;;;;9.10;2.20;;;18.90;99.90;;;;;;5075538;28;20048;-85
2023/08/14 08:13:08;;;;;;;10.55;2.30;;;19.00;99.90;;;;;;5090090;28;20093;-85
2023/08/14 08:15:34;;;;;;;9.43;1.95;;;19.20;99.90;;;;;;5064992;28;20042;-87
2023/08/14 08:18:02;;;;;;;14.48;2.15;;;19.10;99.90;;;;;;5084274;28;20072;-85
2023/08/14 08:20:30;;;;;;;9.10;1.90;;;19.10;99.90;;;;;;5084598;28;20045;-85
2023/08/14 08:22:59;;;;;;;8.48;2.22;;;19.10;99.90;;;;;;5064936;28;20050;-88
2023/08/14 08:25:26;;;;;;;6.85;2.03;;;19.20;99.90;;;;;;5044710;28;20045;-92
2023/08/14 08:27:53;;;;;;;9.35;2.15;;;19.20;99.90;;;;;;5083100;28;20040;-89
2023/08/14 08:30:20;;;;;;;6.13;2.05;;;19.30;99.90;;;;;;5080086;28;20048;-88
2023/08/14 08:32:47;;;;;;;7.70;2.08;;;19.50;99.90;;;;;;5061131;28;20101;-86
2023/08/14 08:35:14;;;;;;;8.95;2.22;;;19.60;99.90;;;;;;5061658;28;20128;-86
2023/08/14 08:40:44;;;;;;;6.43;2.08;;;19.90;99.90;;;;;;5043609;28;20128;-85
2023/08/14 08:43:10;;;;;;;7.32;1.88;;;20.00;99.90;;;;;;5017932;28;20049;-87
2023/08/14 08:45:37;;;;;;;7.82;2.05;;;20.30;99.90;;;;;;5050310;28;20131;-87
2023/08/14 08:48:04;;;;;;;10.02;2.08;;;20.40;99.90;;;;;;5030061;28;20040;-86
2023/08/14 08:50:31;;;;;;;8.80;2.35;;;20.50;99.90;;;;;;5044776;28;20041;-85
2023/08/14 08:52:58;;;;;;;7.05;2.08;;;20.60;99.90;;;;;;5021920;28;20041;-87
2023/08/14 08:55:25;;;;;;;9.27;1.98;;;20.80;99.90;;;;;;5028659;28;20052;-83
2023/08/14 09:00:41;;;;;;;11.05;2.20;;;20.70;99.90;;;;;;5017522;28;20041;-84
2023/08/14 09:03:09;;;;;;;8.80;1.85;;;20.70;99.90;;;;;;5072085;28;20044;-84
2023/08/14 09:05:36;;;;;;;9.95;1.88;;;20.80;99.90;;;;;;5035995;28;20049;-85
2023/08/14 09:08:05;;;;;;;8.85;1.83;;;20.90;99.90;;;;;;5016828;28;20068;-87
2023/08/14 09:10:31;;;;;;;9.07;1.92;;;20.90;99.90;;;;;;5017397;28;20103;-87
2023/08/14 09:12:58;;;;;;;6.80;1.63;;;21.10;99.90;;;;;;5033655;28;20045;-86
2023/08/14 09:15:25;;;;;;;12.02;2.33;;;21.30;99.90;;;;;;5039915;28;20098;-87
2023/08/14 09:21:03;;;;;;;7.57;1.83;;;21.40;99.90;;;;;;5041609;28;20045;-85
2023/08/14 09:23:29;;;;;;;12.20;2.45;;;21.70;99.90;;;;;;5023068;28;20088;-86
2023/08/14 09:25:56;;;;;;;8.93;1.98;;;21.90;99.90;;;;;;5029993;28;20060;-87
2023/08/14 09:28:27;;;;;;;8.57;1.70;;;22.30;99.90;;;;;;5042281;28;20487;-88
2023/08/14 09:30:54;;;;;;;9.88;2.05;;;22.50;99.90;;;;;;5044302;28;20052;-89
2023/08/14 09:33:21;;;;;;;10.23;2.42;;;22.80;99.90;;;;;;5034290;28;20045;-89
2023/08/14 09:35:47;;;;;;;8.55;2.13;;;23.00;99.90;;;;;;5018673;28;20049;-89
2023/08/14 09:38:16;;;;;;;12.57;1.98;;;23.10;99.90;;;;;;5028055;28;20136;-89
2023/08/14 09:40:42;;;;;;;12.30;1.92;;;23.10;99.90;;;;;;5040059;28;20075;-88
2023/08/14 09:43:11;;;;;;;7.88;2.00;;;23.00;99.90;;;;;;5078632;28;20051;-89
2023/08/14 09:45:38;;;;;;;6.65;1.90;;;23.00;99.90;;;;;;5062838;28;20063;-88
2023/08/14 09:50:51;;;;;;;8.45;2.08;;;23.10;99.90;;;;;;5082201;28;20033;-89
2023/08/14 09:53:18;;;;;;;8.80;2.03;;;23.00;99.90;;;;;;5069300;28;20049;-90
2023/08/14 09:55:45;;;;;;;12.20;2.20;;;22.80;99.90;;;;;;5052439;28;20051;-87
2023/08/14 10:00:42;;;;;;;10.50;2.05;;;22.80;99.90;;;;;;5075846;28;20063;-86
2023/08/14 10:03:09;;;;;;;11.50;1.98;;;22.80;99.90;;;;;;5074570;28;20535;-87
2023/08/14 10:05:37;;;;;;;12.90;2.33;;;23.10;99.90;;;;;;5088157;28;20044;-86
2023/08/14 10:08:05;;;;;;;11.70;2.30;;;23.20;99.90;;;;;;5069625;28;20060;-85
2023/08/14 10:10:32;;;;;;;11.13;2.38;;;23.30;99.90;;;;;;5075750;28;20097;-84
2023/08/14 10:13:01;;;;;;;7.28;2.35;;;23.90;99.90;;;;;;5067710;28;20044;-85
2023/08/14 10:15:27;;;;;;;9.45;1.95;;;24.20;99.90;;;;;;5077839;28;20478;-88
2023/08/14 10:17:55;;;;;;;11.57;2.35;;;24.40;99.90;;;;;;5057898;28;20124;-86
2023/08/14 10:20:22;;;;;;;8.50;2.10;;;24.20;99.90;;;;;;5066795;28;20051;-87
2023/08/14 10:22:49;;;;;;;12.23;1.90;;;23.90;99.90;;;;;;5062660;28;20068;-86
2023/08/14 10:25:16;;;;;;;11.38;2.20;;;23.70;99.90;;;;;;5070687;28;20040;-85
2023/08/14 10:30:28;;;;;;;8.50;2.08;;;23.70;99.90;;;;;;5085594;28;20044;-85
2023/08/14 10:32:55;;;;;;;11.65;2.40;;;23.50;99.90;;;;;;5054742;28;20040;-86
2023/08/14 10:35:25;;;;;;;7.78;1.83;;;23.30;99.90;;;;;;5084455;28;20093;-86
2023/08/14 10:37:54;;;;;;;14.07;2.40;;;23.00;99.90;;;;;;5063425;28;20049;-87
2023/08/14 10:40:36;;;;;;;11.38;2.20;;;22.80;99.90;;;;;;5075366;28;20068;-88
2023/08/14 10:43:05;;;;;;;7.30;1.92;;;23.10;99.90;;;;;;5061864;28;20037;-86
2023/08/14 10:45:32;;;;;;;8.60;1.98;;;23.10;99.90;;;;;;5062883;28;20068;-86
2023/08/14 10:51:03;;;;;;;9.35;2.08;;;23.00;99.90;;;;;;5080397;28;20371;-86
2023/08/14 10:53:31;;;;;;;9.95;1.98;;;22.80;99.90;;;;;;5066471;28;20040;-87
2023/08/14 10:55:58;;;;;;;12.02;2.40;;;22.60;99.90;;;;;;5056788;28;20048;-87
2023/08/14 10:58:25;;;;;;;9.00;2.13;;;22.70;99.90;;;;;;5072721;28;20049;-86
2023/08/14 11:00:52;;;;;;;10.27;2.08;;;22.90;99.90;;;;;;5054522;28;20055;-86
2023/08/14 11:03:18;;;;;;;12.00;2.20;;;23.00;99.90;;;;;;5081867;28;20504;-87
2023/08/14 11:05:45;;;;;;;10.88;2.38;;;23.00;99.90;;;;;;5071576;28;20051;-87
2023/08/14 11:08:12;;;;;;;13.65;2.65;;;23.00;99.90;;;;;;5074368;28;20040;-86
2023/08/14 11:10:39;;;;;;;10.30;2.00;;;22.90;99.90;;;;;;5039064;28;20051;-87
2023/08/14 11:13:12;;;;;;;9.10;2.15;;;22.80;99.90;;;;;;5069883;28;20041;-89
2023/08/14 11:15:39;;;;;;;10.95;2.08;;;22.60;99.90;;;;;;5056116;28;20056;-86
2023/08/14 11:20:52;;;;;;;11.85;1.83;;;22.10;99.90;;;;;;5068055;28;20078;-87
2023/08/14 11:23:18;;;;;;;6.55;1.63;;;21.90;99.90;;;;;;5082968;28;20086;-87
2023/08/14 11:25:45;;;;;;;8.25;2.35;;;21.90;99.90;;;;;;5065915;28;20050;-88
2023/08/14 11:28:13;;;;;;;8.57;2.28;;;21.80;99.90;;;;;;5068449;28;20053;-85
2023/08/14 11:30:40;;;;;;;10.68;2.45;;;21.80;99.90;;;;;;5058511;28;20052;-87
2023/08/14 11:33:07;;;;;;;11.82;2.10;;;21.90;99.90;;;;;;5076495;28;20110;-86
2023/08/14 11:35:34;;;;;;;9.48;1.98;;;22.20;99.90;;;;;;5063050;28;20447;-86
2023/08/14 11:38:00;;;;;;;8.07;2.05;;;22.40;99.90;;;;;;5090186;28;20367;-88
2023/08/14 11:40:27;;;;;;;11.95;2.45;;;22.90;99.90;;;;;;5077947;28;20049;-87
2023/08/14 11:42:54;;;;;;;14.45;2.42;;;23.40;99.90;;;;;;5045164;28;20481;-86
2023/08/14 11:45:24;;;;;;;9.60;2.20;;;23.80;99.90;;;;;;5064239;28;20052;-86
2023/08/14 11:50:37;;;;;;;10.57;2.28;;;24.90;99.90;;;;;;5061656;28;20041;-88
2023/08/14 11:53:03;;;;;;;8.60;1.90;;;24.40;99.90;;;;;;5013271;28;20521;-87
2023/08/14 11:55:31;;;;;;;9.10;2.30;;;24.60;99.90;;;;;;5047141;28;20041;-87
2023/08/14 11:57:59;;;;;;;11.63;2.70;;;25.00;99.90;;;;;;5053256;28;20056;-87
2023/08/14 12:00:26;;;;;;;13.68;3.00;;;25.70;99.90;;;;;;5047670;28;20048;-87
2023/08/14 12:02:59;;;;;;;10.80;2.80;;;26.10;99.90;;;;;;5062040;28;20037;-86
2023/08/14 12:05:26;;;;;;;10.65;2.95;;;26.50;99.90;;;;;;5049348;28;20054;-87
2023/08/14 12:07:54;;;;;;;12.15;3.47;;;26.80;99.90;;;;;;5051706;28;20180;-89
2023/08/14 12:10:21;;;;;;;13.38;3.10;;;26.50;99.90;;;;;;5046480;28;20033;-87
2023/08/14 12:12:48;;;;;;;14.70;3.38;;;26.60;99.90;;;;;;5042673;28;20456;-89
2023/08/14 12:15:21;;;;;;;10.63;3.03;;;26.80;99.90;;;;;;5051693;28;20056;-86
2023/08/14 12:20:36;;;;;;;12.23;2.58;;;26.40;99.90;;;;;;5036397;28;20349;-87
2023/08/14 12:23:03;;;;;;;11.77;3.20;;;26.10;99.90;;;;;;5039052;28;20075;-88
2023/08/14 12:25:30;;;;;;;14.65;3.10;;;26.60;99.90;;;;;;5030032;28;20115;-86
2023/08/14 12:30:44;;;;;;;11.45;2.80;;;27.50;99.90;;;;;;5036830;28;20085;-87
2023/08/14 12:33:11;;;;;;;11.60;2.67;;;28.00;99.90;;;;;;5017333;28;20045;-86
2023/08/14 12:35:38;;;;;;;11.90;2.80;;;28.50;99.90;;;;;;5050513;28;20091;-86
2023/08/14 12:40:52;;;;;;;8.07;2.22;;;27.50;99.90;;;;;;5040130;28;20054;-88
2023/08/14 12:43:19;;;;;;;10.55;2.60;;;27.00;99.90;;;;;;5027369;28;20475;-86
2023/08/14 12:45:58;;;;;;;12.20;3.17;;;27.20;99.90;;;;;;5023271;28;20045;-88
2023/08/14 12:48:27;;;;;;;10.02;2.80;;;27.30;99.90;;;;;;5047273;28;20044;-88
2023/08/14 12:50:54;;;;;;;10.82;2.60;;;27.30;99.90;;;;;;5054514;28;20040;-88
2023/08/14 12:53:28;;;;;;;13.32;2.92;;;26.90;99.90;;;;;;5017189;28;20148;-86
2023/08/14 12:55:55;;;;;;;9.43;2.50;;;26.80;99.90;;;;;;5049134;28;20119;-89
2023/08/14 12:58:29;;;;;;;9.43;2.70;;;26.70;99.90;;;;;;5035392;28;20032;-87
2023/08/14 13:00:56;;;;;;;9.98;2.63;;;26.90;99.90;;;;;;5028017;28;20049;-88
2023/08/14 13:03:31;;;;;;;9.27;2.30;;;26.60;99.90;;;;;;5026743;28;20040;-88
2023/08/14 13:06:01;;;;;;;9.82;2.30;;;26.90;99.90;;;;;;5017683;28;20043;-86
2023/08/14 13:08:28;;;;;;;8.57;2.38;;;27.50;99.90;;;;;;5019188;28;20065;-87
2023/08/14 13:10:55;;;;;;;7.25;2.33;;;27.60;99.90;;;;;;5025202;28;20370;-87
2023/08/14 13:13:23;;;;;;;8.55;2.50;;;26.70;99.90;;;;;;5035152;28;20037;-85
2023/08/14 13:15:51;;;;;;;8.70;2.72;;;26.10;99.90;;;;;;5025230;28;20083;-86
2023/08/14 13:21:03;;;;;;;9.02;2.35;;;25.50;99.90;;;;;;5036295;28;20107;-86
2023/08/14 13:23:30;;;;;;;8.88;2.60;;;25.10;99.90;;;;;;5036756;28;20049;-87
2023/08/14 13:25:56;;;;;;;7.43;2.05;;;24.70;99.90;;;;;;5016495;28;20053;-83
2023/08/14 13:31:09;;;;;;;9.27;1.52;;;24.00;99.90;;;;;;5043000;28;20037;-87
2023/08/14 13:33:36;;;;;;;6.72;1.88;;;23.80;99.90;;;;;;5061860;28;20382;-87
2023/08/14 13:36:02;;;;;;;9.55;1.60;;;23.60;99.90;;;;;;5018683;28;20075;-88
2023/08/14 13:38:29;;;;;;;10.27;1.95;;;23.40;99.90;;;;;;5001345;28;20052;-85